createdAt,value
2023-03-24T00:00:23.973Z,3.60
2023-03-24T00:03:11.036Z,3.40
2023-03-24T00:05:38.410Z,3.57
2023-03-24T00:08:05.483Z,4.10
2023-03-24T00:10:34.870Z,4.50
2023-03-24T00:13:02.486Z,4.13
2023-03-24T00:15:29.821Z,4.63
2023-03-24T00:17:58.203Z,5.73
2023-03-24T00:20:26.397Z,4.40
2023-03-24T00:22:58.621Z,4.13
2023-03-24T00:25:29.333Z,4.23
2023-03-24T00:27:57.578Z,4.27
2023-03-24T00:30:26.045Z,4.20
2023-03-24T00:32:53.967Z,4.30
2023-03-24T00:35:21.922Z,4.07
2023-03-24T00:37:52.011Z,3.73
2023-03-24T00:40:21.096Z,4.10
2023-03-24T00:42:49.979Z,3.90
2023-03-24T00:45:20.302Z,3.87
2023-03-24T00:47:50.274Z,4.17
2023-03-24T00:50:20.598Z,4.30
2023-03-24T00:52:49.159Z,5.43
2023-03-24T00:55:17.247Z,5.63
2023-03-24T00:57:50.762Z,5.40
2023-03-24T01:00:21.125Z,5.47
2023-03-24T01:02:53.847Z,4.43
2023-03-24T01:05:23.335Z,4.60
2023-03-24T01:07:53.512Z,4.33
2023-03-24T01:10:26.609Z,4.20
2023-03-24T01:12:58.938Z,5.03
2023-03-24T01:15:33.321Z,4.63
2023-03-24T01:18:02.283Z,5.80
2023-03-24T01:20:33.255Z,5.67
2023-03-24T01:23:01.944Z,5.60
2023-03-24T01:25:30.526Z,6.47
2023-03-24T01:27:57.755Z,6.40
2023-03-24T01:30:27.443Z,6.30
2023-03-24T01:32:55.048Z,6.67
2023-03-24T01:35:23.456Z,6.90
2023-03-24T01:37:50.498Z,7.90
2023-03-24T01:40:21.281Z,7.40
2023-03-24T01:42:48.446Z,7.67
2023-03-24T01:45:40.420Z,7.30
2023-03-24T01:48:12.284Z,7.30
2023-03-24T01:50:42.168Z,6.90
2023-03-24T01:53:09.551Z,7.13
2023-03-24T01:55:37.620Z,6.40
2023-03-24T01:58:07.144Z,5.80
2023-03-24T02:00:47.394Z,8.83
2023-03-24T02:03:40.150Z,8.80
2023-03-24T02:06:08.654Z,8.00
2023-03-24T02:08:53.597Z,9.23
2023-03-24T02:11:23.102Z,8.40
2023-03-24T02:13:54.498Z,8.60
2023-03-24T02:16:34.896Z,9.03
2023-03-24T02:19:25.198Z,11.23
2023-03-24T02:22:26.360Z,12.80
2023-03-24T02:25:15.323Z,12.70
2023-03-24T02:27:58.266Z,12.87
2023-03-24T02:30:40.527Z,15.13
2023-03-24T02:33:38.321Z,14.87
2023-03-24T02:36:24.211Z,17.33
2023-03-24T02:39:17.639Z,18.90
2023-03-24T02:41:56.308Z,19.70
2023-03-24T02:44:31.992Z,22.73
2023-03-24T02:47:14.888Z,21.70
2023-03-24T02:49:47.451Z,19.47
2023-03-24T02:52:32.561Z,21.33
2023-03-24T02:55:12.432Z,20.73
2023-03-24T02:57:54.798Z,21.63
2023-03-24T03:01:06.061Z,20.50
2023-03-24T03:03:55.644Z,20.43
2023-03-24T03:06:32.560Z,21.63
2023-03-24T03:09:07.726Z,21.00
2023-03-24T03:11:34.534Z,21.27
2023-03-24T03:14:06.184Z,20.70
2023-03-24T03:17:01.522Z,22.77
2023-03-24T03:19:43.686Z,19.83
2023-03-24T03:22:16.657Z,20.97
2023-03-24T03:24:50.466Z,21.27
2023-03-24T03:27:22.051Z,21.37
2023-03-24T03:29:54.397Z,21.03
2023-03-24T03:32:28.460Z,20.20
2023-03-24T03:35:00.331Z,20.47
2023-03-24T03:37:50.621Z,21.03
2023-03-24T03:40:22.242Z,20.30
2023-03-24T03:42:54.954Z,20.70
2023-03-24T03:45:22.134Z,21.37
2023-03-24T03:47:49.975Z,21.47
2023-03-24T03:50:17.496Z,20.27
2023-03-24T03:52:45.076Z,21.67
2023-03-24T03:55:13.103Z,21.30
2023-03-24T03:57:41.634Z,20.30
2023-03-24T04:00:31.725Z,19.43
2023-03-24T04:03:42.545Z,18.63
2023-03-24T04:06:27.077Z,20.20
2023-03-24T04:09:07.282Z,19.63
2023-03-24T04:12:02.445Z,18.37
2023-03-24T04:15:27.855Z,17.87
2023-03-24T04:18:10.312Z,19.57
2023-03-24T04:21:10.080Z,19.40
2023-03-24T04:23:50.458Z,17.60
2023-03-24T04:26:42.461Z,16.67
2023-03-24T04:29:17.893Z,17.50
2023-03-24T04:31:59.075Z,17.27
2023-03-24T04:34:30.826Z,16.70
2023-03-24T04:37:12.523Z,16.53
2023-03-24T04:40:06.061Z,16.90
2023-03-24T04:42:36.769Z,17.40
2023-03-24T04:45:06.961Z,16.97
2023-03-24T04:47:43.953Z,16.47
2023-03-24T04:50:31.456Z,17.70
2023-03-24T04:53:00.783Z,17.03
2023-03-24T04:55:46.261Z,17.77
2023-03-24T04:58:13.160Z,17.17
2023-03-24T05:00:44.279Z,17.87
2023-03-24T05:03:14.493Z,16.63
2023-03-24T05:05:48.249Z,15.53
2023-03-24T05:08:17.554Z,15.50
2023-03-24T05:10:45.981Z,17.00
2023-03-24T05:13:13.171Z,16.67
2023-03-24T05:15:46.880Z,16.47
2023-03-24T05:18:27.206Z,17.03
2023-03-24T05:20:57.130Z,14.97
2023-03-24T05:23:24.540Z,16.67
2023-03-24T05:25:51.594Z,15.30
2023-03-24T05:28:21.372Z,15.43
2023-03-24T05:30:48.786Z,15.20
2023-03-24T05:33:35.954Z,14.33
2023-03-24T05:36:04.587Z,14.17
2023-03-24T05:38:32.867Z,13.73
2023-03-24T05:41:01.227Z,13.63
2023-03-24T05:43:33.942Z,14.00
2023-03-24T05:46:10.446Z,14.37
2023-03-24T05:48:37.269Z,14.37
2023-03-24T05:51:12.788Z,12.83
2023-03-24T05:53:39.894Z,12.23
2023-03-24T05:56:13.447Z,12.63
2023-03-24T05:59:06.737Z,12.97
2023-03-24T06:02:04.721Z,11.37
2023-03-24T06:04:51.725Z,11.50
2023-03-24T06:07:22.188Z,12.60
2023-03-24T06:09:51.093Z,12.10
2023-03-24T06:12:18.808Z,13.57
2023-03-24T06:14:52.861Z,11.80
2023-03-24T06:17:21.410Z,12.00
2023-03-24T06:19:51.629Z,11.30
2023-03-24T06:22:48.642Z,11.83
2023-03-24T06:25:21.526Z,11.17
2023-03-24T06:28:04.069Z,10.43
2023-03-24T06:30:32.179Z,10.30
2023-03-24T06:32:59.341Z,9.97
2023-03-24T06:35:26.598Z,10.50
2023-03-24T06:38:01.233Z,9.47
2023-03-24T06:40:28.447Z,9.90
2023-03-24T06:42:58.685Z,9.43
2023-03-24T06:45:26.175Z,9.50
2023-03-24T06:47:57.307Z,9.27
2023-03-24T06:50:32.995Z,8.53
2023-03-24T06:53:02.300Z,8.80
2023-03-24T06:55:31.054Z,8.73
2023-03-24T06:57:58.216Z,7.97
2023-03-24T07:00:25.783Z,7.73
2023-03-24T07:03:14.120Z,7.97
2023-03-24T07:05:45.656Z,7.60
2023-03-24T07:10:48.616Z,7.80
2023-03-24T07:13:16.121Z,7.53
2023-03-24T07:15:42.994Z,7.07
2023-03-24T07:18:11.512Z,7.13
2023-03-24T07:20:42.264Z,6.90
2023-03-24T07:23:18.346Z,6.50
2023-03-24T07:26:08.009Z,7.50
2023-03-24T07:28:55.954Z,7.00
2023-03-24T07:31:38.242Z,7.57
2023-03-24T07:34:09.152Z,7.73
2023-03-24T07:36:38.287Z,7.50
2023-03-24T07:39:09.422Z,8.17
2023-03-24T07:41:37.179Z,8.70
2023-03-24T07:44:14.870Z,9.87
2023-03-24T07:46:49.079Z,10.03
2023-03-24T07:49:19.824Z,9.97
2023-03-24T07:52:08.505Z,10.80
2023-03-24T07:54:38.752Z,10.10
2023-03-24T07:57:06.145Z,10.50
2023-03-24T07:59:34.433Z,11.60
2023-03-24T08:02:05.709Z,12.20
2023-03-24T08:04:43.718Z,11.80
2023-03-24T08:07:37.187Z,12.63
2023-03-24T08:10:04.799Z,12.63
2023-03-24T08:12:31.885Z,11.57
2023-03-24T08:14:59.045Z,13.40
2023-03-24T08:17:25.875Z,13.63
2023-03-24T08:20:00.095Z,12.97
2023-03-24T08:22:28.138Z,13.03
2023-03-24T08:24:55.109Z,13.17
2023-03-24T08:27:21.848Z,11.53
2023-03-24T08:29:48.880Z,11.27
2023-03-24T08:32:15.699Z,11.10
2023-03-24T08:34:42.689Z,10.67
2023-03-24T08:37:09.523Z,10.60
2023-03-24T08:39:36.504Z,9.90
2023-03-24T08:42:03.771Z,9.80
2023-03-24T08:44:32.872Z,9.73
2023-03-24T08:47:03.416Z,9.80
2023-03-24T08:49:30.616Z,9.37
2023-03-24T08:51:57.372Z,9.20
2023-03-24T08:54:24.738Z,8.87
2023-03-24T08:56:51.860Z,8.25
2023-03-24T08:59:18.986Z,7.82
2023-03-24T09:01:45.745Z,8.45
2023-03-24T09:04:13.047Z,8.27
2023-03-24T09:06:39.878Z,7.93
2023-03-24T09:09:08.198Z,8.18
2023-03-24T09:11:36.306Z,8.90
2023-03-24T09:14:05.197Z,8.80
2023-03-24T09:16:32.114Z,7.33
2023-03-24T09:18:59.262Z,6.25
2023-03-24T09:21:26.206Z,6.20
2023-03-24T09:23:53.219Z,6.32
2023-03-24T09:26:20.059Z,6.35
2023-03-24T09:28:47.072Z,5.78
2023-03-24T09:31:13.859Z,6.07
2023-03-24T09:33:41.148Z,5.60
2023-03-24T09:36:08.407Z,5.20
2023-03-24T09:38:35.613Z,5.38
2023-03-24T09:41:03.334Z,5.55
2023-03-24T09:43:40.886Z,5.82
2023-03-24T09:46:16.081Z,4.72
2023-03-24T09:48:53.135Z,4.95
2023-03-24T09:51:25.918Z,4.75
2023-03-24T09:53:56.922Z,4.20
2023-03-24T09:56:25.860Z,4.13
2023-03-24T09:59:17.020Z,3.95
2023-03-24T10:01:45.268Z,3.70
2023-03-24T10:04:15.899Z,4.30
2023-03-24T10:06:43.642Z,3.37
2023-03-24T10:09:31.021Z,3.63
2023-03-24T10:12:06.515Z,3.13
2023-03-24T10:15:00.967Z,3.03
2023-03-24T10:17:39.956Z,2.70
2023-03-24T10:20:39.131Z,2.60
2023-03-24T10:23:22.783Z,2.42
2023-03-24T10:26:07.998Z,2.47
2023-03-24T10:28:50.115Z,2.17
2023-03-24T10:31:20.310Z,2.25
2023-03-24T10:33:47.453Z,3.08
2023-03-24T10:36:18.376Z,2.20
2023-03-24T10:38:45.910Z,2.58
2023-03-24T10:41:19.224Z,2.47
2023-03-24T10:43:48.367Z,2.35
2023-03-24T10:46:19.231Z,1.88
2023-03-24T10:48:48.535Z,2.35
2023-03-24T10:51:23.385Z,2.38
2023-03-24T10:53:52.189Z,2.13
2023-03-24T10:56:42.871Z,2.42
2023-03-24T10:59:38.768Z,2.97
2023-03-24T11:02:27.043Z,2.13
2023-03-24T11:05:03.630Z,2.45
2023-03-24T11:07:39.294Z,2.75
2023-03-24T11:10:15.309Z,2.53
2023-03-24T11:12:54.317Z,2.58
2023-03-24T11:15:29.232Z,3.00
2023-03-24T11:17:58.231Z,2.67
2023-03-24T11:20:35.457Z,3.03
2023-03-24T11:23:21.075Z,3.03
2023-03-24T11:26:02.325Z,2.92
2023-03-24T11:28:35.403Z,3.05
2023-03-24T11:31:08.069Z,2.45
2023-03-24T11:33:43.340Z,2.80
2023-03-24T11:36:30.377Z,2.60
2023-03-24T11:39:12.058Z,2.55
2023-03-24T11:41:42.935Z,2.83
2023-03-24T11:44:24.611Z,2.72
2023-03-24T11:46:57.230Z,2.47
2023-03-24T11:49:31.906Z,2.38
2023-03-24T11:51:58.747Z,2.35
2023-03-24T11:54:33.783Z,2.47
2023-03-24T11:57:08.041Z,2.53
2023-03-24T11:59:52.200Z,2.65
2023-03-24T12:02:44.453Z,2.67
2023-03-24T12:05:42.065Z,2.63
2023-03-24T12:08:21.923Z,2.58
2023-03-24T12:11:04.512Z,2.70
2023-03-24T12:13:39.060Z,2.95
2023-03-24T12:16:21.434Z,2.45
2023-03-24T12:19:06.948Z,3.05
2023-03-24T12:21:33.987Z,2.58
2023-03-24T12:24:17.354Z,3.17
2023-03-24T12:26:44.425Z,2.60
2023-03-24T12:29:37.550Z,2.95
2023-03-24T12:32:27.226Z,2.63
2023-03-24T12:35:15.242Z,3.53
2023-03-24T12:38:03.834Z,3.10
2023-03-24T12:40:42.992Z,3.35
2023-03-24T12:43:41.185Z,3.53
2023-03-24T12:46:46.676Z,3.50
2023-03-24T12:50:00.242Z,3.30
2023-03-24T12:52:49.053Z,4.38
2023-03-24T12:55:29.212Z,3.60
2023-03-24T12:58:09.178Z,4.28
2023-03-24T13:00:57.914Z,4.03
2023-03-24T13:03:41.367Z,4.88
2023-03-24T13:06:20.917Z,4.28
2023-03-24T13:08:59.115Z,4.25
2023-03-24T13:11:36.232Z,4.38
2023-03-24T13:14:06.937Z,4.10
2023-03-24T13:16:37.944Z,4.38
2023-03-24T13:19:17.023Z,3.70
2023-03-24T13:21:45.526Z,4.25
2023-03-24T13:24:15.400Z,3.70
2023-03-24T13:27:13.673Z,4.20
2023-03-24T13:30:00.117Z,3.58
2023-03-24T13:32:44.922Z,4.15
2023-03-24T13:35:30.057Z,3.55
2023-03-24T13:38:22.184Z,3.88
2023-03-24T13:40:53.145Z,3.60
2023-03-24T13:43:31.288Z,3.97
2023-03-24T13:46:07.731Z,3.72
2023-03-24T13:48:42.240Z,3.63
2023-03-24T13:51:27.533Z,3.80
2023-03-24T13:54:11.759Z,4.07
2023-03-24T13:57:05.675Z,4.10
2023-03-24T14:00:01.961Z,4.05
2023-03-24T14:02:31.692Z,4.22
2023-03-24T14:05:09.738Z,4.05
2023-03-24T14:07:39.524Z,4.50
2023-03-24T14:10:15.950Z,4.72
2023-03-24T14:13:01.785Z,3.80
2023-03-24T14:15:44.170Z,3.97
2023-03-24T14:18:23.014Z,3.90
2023-03-24T14:20:56.537Z,3.83
2023-03-24T14:23:52.521Z,4.30
2023-03-24T14:26:23.309Z,4.15
2023-03-24T14:28:52.469Z,4.40
2023-03-24T14:31:24.609Z,3.80
2023-03-24T14:33:54.470Z,3.85
2023-03-24T14:36:30.562Z,3.83
2023-03-24T14:39:08.933Z,3.20
2023-03-24T14:41:39.208Z,3.72
2023-03-24T14:44:06.521Z,3.42
2023-03-24T14:46:37.893Z,3.60
2023-03-24T14:49:23.169Z,3.97
2023-03-24T14:51:59.087Z,4.10
2023-03-24T14:54:48.025Z,3.33
2023-03-24T14:57:39.096Z,3.28
2023-03-24T15:00:18.922Z,3.58
2023-03-24T15:02:48.537Z,3.13
2023-03-24T15:05:37.088Z,4.00
2023-03-24T15:08:21.793Z,3.15
2023-03-24T15:10:49.196Z,3.03
2023-03-24T15:13:28.918Z,4.82
2023-03-24T15:15:56.158Z,4.95
2023-03-24T15:18:23.603Z,3.58
2023-03-24T15:20:51.285Z,2.80
2023-03-24T15:23:28.292Z,2.95
2023-03-24T15:25:56.358Z,3.35
2023-03-24T15:28:29.030Z,3.00
2023-03-24T15:30:59.435Z,2.90
2023-03-24T15:33:30.764Z,3.30
2023-03-24T15:35:59.630Z,3.20
2023-03-24T15:38:33.543Z,3.28
2023-03-24T15:41:07.869Z,5.60
2023-03-24T15:43:42.106Z,5.60
2023-03-24T15:46:22.660Z,4.20
2023-03-24T15:48:50.243Z,5.25
2023-03-24T15:51:17.056Z,4.07
2023-03-24T15:53:56.251Z,5.72
2023-03-24T15:56:28.978Z,5.13
2023-03-24T15:59:11.806Z,5.35
2023-03-24T16:01:42.608Z,7.90
2023-03-24T16:04:17.629Z,7.07
2023-03-24T16:06:50.134Z,5.47
2023-03-24T16:09:27.328Z,4.80
2023-03-24T16:11:54.388Z,4.80
2023-03-24T16:14:27.878Z,5.45
2023-03-24T16:17:02.998Z,5.65
2023-03-24T16:19:30.633Z,3.22
2023-03-24T16:21:57.876Z,3.67
2023-03-24T16:24:25.152Z,3.30
2023-03-24T16:26:52.014Z,2.72
2023-03-24T16:29:22.297Z,3.30
2023-03-24T16:31:51.368Z,3.63
2023-03-24T16:34:20.697Z,3.55
2023-03-24T16:36:48.785Z,3.15
2023-03-24T16:39:18.899Z,3.63
2023-03-24T16:41:46.362Z,3.95
2023-03-24T16:44:13.564Z,4.03
2023-03-24T16:46:41.101Z,3.38
2023-03-24T16:49:11.109Z,3.22
2023-03-24T16:51:37.909Z,3.28
2023-03-24T16:54:05.610Z,2.67
2023-03-24T16:56:32.440Z,3.38
2023-03-24T16:58:59.565Z,3.10
2023-03-24T17:01:35.913Z,3.50
2023-03-24T17:04:10.324Z,2.83
2023-03-24T17:06:39.733Z,3.75
2023-03-24T17:09:08.439Z,40.97
2023-03-24T17:11:38.384Z,9.98
2023-03-24T17:14:08.336Z,10.48
2023-03-24T17:16:37.070Z,10.80
2023-03-24T17:19:06.169Z,5.18
2023-03-24T17:21:36.667Z,5.55
2023-03-24T17:24:04.643Z,5.97
2023-03-24T17:26:32.192Z,3.30
2023-03-24T17:28:59.306Z,3.72
2023-03-24T17:31:26.221Z,3.72
2023-03-24T17:33:53.192Z,3.63
2023-03-24T17:36:19.932Z,8.02
2023-03-24T17:38:49.869Z,8.68
2023-03-24T17:41:16.692Z,4.22
2023-03-24T17:43:46.202Z,4.50
2023-03-24T17:46:13.234Z,4.75
2023-03-24T17:48:40.419Z,4.50
2023-03-24T17:51:07.252Z,3.45
2023-03-24T17:53:34.628Z,2.70
2023-03-24T17:56:05.684Z,3.13
2023-03-24T17:58:34.709Z,3.43
2023-03-24T18:01:07.773Z,3.40
2023-03-24T18:03:38.159Z,2.80
2023-03-24T18:06:10.260Z,3.23
2023-03-24T18:08:38.304Z,2.90
2023-03-24T18:11:07.175Z,3.50
2023-03-24T18:13:34.528Z,4.00
2023-03-24T18:16:13.344Z,3.10
2023-03-24T18:18:45.821Z,4.18
2023-03-24T18:21:12.852Z,4.68
2023-03-24T18:23:39.914Z,4.15
2023-03-24T18:26:08.215Z,4.53
2023-03-24T18:28:37.273Z,5.80
2023-03-24T18:31:12.798Z,4.87
2023-03-24T18:33:42.713Z,4.20
2023-03-24T18:36:10.591Z,5.13
2023-03-24T18:38:37.911Z,6.00
2023-03-24T18:41:06.997Z,4.00
2023-03-24T18:43:37.432Z,4.07
2023-03-24T18:46:05.686Z,4.53
2023-03-24T18:48:32.722Z,5.90
2023-03-24T18:50:59.397Z,2.80
2023-03-24T18:53:26.408Z,3.23
2023-03-24T18:55:53.122Z,5.27
2023-03-24T18:58:20.312Z,2.50
2023-03-24T19:00:57.608Z,2.60
2023-03-24T19:03:26.314Z,2.60
2023-03-24T19:05:53.177Z,2.30
2023-03-24T19:08:21.869Z,2.30
2023-03-24T19:10:48.985Z,2.80
2023-03-24T19:13:16.970Z,2.90
2023-03-24T19:15:48.255Z,3.03
2023-03-24T19:18:15.698Z,4.33
2023-03-24T19:20:42.749Z,4.37
2023-03-24T19:23:09.765Z,3.90
2023-03-24T19:25:36.668Z,3.50
2023-03-24T19:28:03.822Z,3.70
2023-03-24T19:30:30.892Z,3.47
2023-03-24T19:32:58.027Z,3.93
2023-03-24T19:35:25.004Z,4.87
2023-03-24T19:37:53.398Z,4.37
2023-03-24T19:40:20.176Z,4.33
2023-03-24T19:42:47.252Z,3.70
2023-03-24T19:45:16.427Z,4.40
2023-03-24T19:47:45.835Z,3.83
2023-03-24T19:50:14.850Z,4.07
2023-03-24T19:52:43.134Z,3.90
2023-03-24T19:55:10.834Z,3.93
2023-03-24T19:57:38.290Z,3.90
2023-03-24T20:00:09.217Z,3.60
2023-03-24T20:02:37.497Z,4.40
2023-03-24T20:05:05.439Z,4.00
2023-03-24T20:07:32.454Z,4.53
2023-03-24T20:09:59.891Z,4.30
2023-03-24T20:12:27.838Z,4.53
2023-03-24T20:14:56.378Z,3.77
2023-03-24T20:17:29.414Z,4.30
2023-03-24T20:19:56.751Z,4.03
2023-03-24T20:22:23.784Z,3.70
2023-03-24T20:24:50.739Z,3.83
2023-03-24T20:27:18.833Z,3.97
2023-03-24T20:29:46.233Z,3.83
2023-03-24T20:32:13.699Z,3.43
2023-03-24T20:34:40.745Z,4.17
2023-03-24T20:37:08.150Z,3.93
2023-03-24T20:39:35.309Z,4.17
2023-03-24T20:42:02.426Z,3.90
2023-03-24T20:44:29.205Z,3.40
2023-03-24T20:47:00.732Z,3.50
2023-03-24T20:49:27.696Z,3.97
2023-03-24T20:51:54.847Z,4.60
2023-03-24T20:54:21.678Z,4.53
2023-03-24T20:56:55.251Z,4.07
2023-03-24T20:59:22.339Z,4.37
2023-03-24T21:01:49.382Z,4.13
2023-03-24T21:04:17.479Z,4.37
2023-03-24T21:06:44.985Z,4.10
2023-03-24T21:09:12.103Z,3.70
2023-03-24T21:11:39.259Z,4.00
2023-03-24T21:14:06.066Z,4.57
2023-03-24T21:16:37.639Z,4.80
2023-03-24T21:19:04.989Z,4.63
2023-03-24T21:21:32.275Z,3.97
2023-03-24T21:24:00.354Z,4.30
2023-03-24T21:26:27.710Z,4.27
2023-03-24T21:28:54.451Z,4.13
2023-03-24T21:31:22.905Z,4.83
2023-03-24T21:33:50.908Z,4.07
2023-03-24T21:36:18.865Z,4.23
2023-03-24T21:38:45.796Z,4.43
2023-03-24T21:41:12.939Z,4.63
2023-03-24T21:43:41.003Z,4.97
2023-03-24T21:46:14.937Z,4.57
2023-03-24T21:48:51.299Z,4.47
2023-03-24T21:51:26.405Z,5.47
2023-03-24T21:53:59.212Z,4.33
2023-03-24T21:56:26.347Z,4.90
2023-03-24T21:58:54.556Z,4.77
2023-03-24T22:01:22.607Z,5.67
2023-03-24T22:03:50.838Z,5.70
2023-03-24T22:06:18.014Z,5.13
2023-03-24T22:08:48.739Z,5.13
2023-03-24T22:11:18.477Z,5.20
2023-03-24T22:13:46.428Z,4.80
2023-03-24T22:16:14.070Z,5.07
2023-03-24T22:18:41.643Z,4.43
2023-03-24T22:21:10.554Z,5.60
2023-03-24T22:23:39.690Z,5.40
2023-03-24T22:26:10.535Z,5.20
2023-03-24T22:28:37.967Z,5.03
2023-03-24T22:31:08.394Z,5.50
2023-03-24T22:33:36.179Z,5.13
2023-03-24T22:36:04.718Z,5.33
2023-03-24T22:38:32.514Z,5.83
2023-03-24T22:41:01.905Z,5.63
2023-03-24T22:43:29.452Z,5.53
2023-03-24T22:45:56.698Z,6.60
2023-03-24T22:48:23.803Z,5.73
2023-03-24T22:50:51.391Z,6.03
2023-03-24T22:53:18.292Z,5.97
2023-03-24T22:55:45.570Z,6.03
2023-03-24T22:58:13.792Z,5.97
2023-03-24T23:00:42.092Z,6.00
2023-03-24T23:03:09.801Z,6.30
2023-03-24T23:05:41.360Z,6.20
2023-03-24T23:08:09.554Z,5.83
2023-03-24T23:10:38.793Z,6.33
2023-03-24T23:13:05.651Z,6.53
2023-03-24T23:15:32.991Z,6.97
2023-03-24T23:18:00.233Z,6.63
2023-03-24T23:20:28.320Z,7.00
2023-03-24T23:22:56.304Z,7.40
2023-03-24T23:25:23.756Z,7.47
2023-03-24T23:27:50.785Z,7.37
2023-03-24T23:30:18.109Z,7.13
2023-03-24T23:32:46.777Z,7.37
2023-03-24T23:35:14.754Z,7.87
2023-03-24T23:37:41.667Z,7.30
2023-03-24T23:40:15.636Z,7.33
2023-03-24T23:42:47.658Z,7.10
2023-03-24T23:45:18.379Z,7.30
2023-03-24T23:47:50.893Z,7.50
2023-03-24T23:50:19.649Z,7.67
2023-03-24T23:52:46.992Z,7.37
2023-03-24T23:55:17.705Z,9.23
2023-03-24T23:57:45.506Z,13.20
